createdAt,value
2022-12-11T08:06:59.392Z,7.80
2022-12-11T08:09:44.852Z,5.75
2022-12-11T08:12:30.629Z,6.10
2022-12-11T08:15:16.367Z,5.70
2022-12-11T08:18:02.042Z,5.70
2022-12-11T08:20:47.634Z,5.82
2022-12-11T08:23:34.855Z,5.22
2022-12-11T08:26:22.256Z,5.63
2022-12-11T08:29:07.930Z,6.50
2022-12-11T08:31:53.585Z,5.77
2022-12-11T08:34:39.366Z,6.05
2022-12-11T08:37:24.868Z,6.35
2022-12-11T08:40:12.598Z,6.40
2022-12-11T08:42:57.939Z,6.70
2022-12-11T08:45:43.279Z,5.83
2022-12-11T08:48:28.803Z,5.70
2022-12-11T08:51:17.145Z,5.72
2022-12-11T08:54:03.044Z,5.85
2022-12-11T08:56:54.800Z,5.50
2022-12-11T08:59:43.418Z,5.57
2022-12-11T09:02:28.816Z,5.45
2022-12-11T09:05:14.370Z,5.78
2022-12-11T09:08:00.538Z,6.13
2022-12-11T09:10:45.985Z,5.53
2022-12-11T09:13:33.015Z,6.63
2022-12-11T09:16:21.659Z,6.38
2022-12-11T09:19:09.141Z,5.80
2022-12-11T09:21:54.594Z,6.15
2022-12-11T09:24:40.237Z,5.95
2022-12-11T09:27:25.845Z,5.90
2022-12-11T09:30:14.166Z,6.15
2022-12-11T09:33:00.308Z,6.40
2022-12-11T09:35:46.267Z,5.82
2022-12-11T09:38:33.568Z,5.63
2022-12-11T09:41:35.524Z,6.67
2022-12-11T09:44:34.713Z,5.68
2022-12-11T09:47:36.206Z,5.75
2022-12-11T09:50:25.005Z,6.00
2022-12-11T09:53:15.208Z,6.10
2022-12-11T09:56:05.554Z,6.00
2022-12-11T09:59:01.698Z,5.30
2022-12-11T10:01:55.111Z,5.30
2022-12-11T10:04:55.954Z,5.53
2022-12-11T10:07:48.671Z,4.93
2022-12-11T10:10:42.281Z,4.80
2022-12-11T10:13:36.345Z,5.60
2022-12-11T10:16:35.644Z,5.38
2022-12-11T10:19:24.930Z,4.80
2022-12-11T10:22:19.863Z,5.07
2022-12-11T10:25:11.045Z,5.37
2022-12-11T10:28:13.886Z,5.05
2022-12-11T10:31:28.670Z,4.63
2022-12-11T10:34:20.511Z,4.70
2022-12-11T10:37:06.460Z,4.78
2022-12-11T10:39:55.888Z,4.53
2022-12-11T10:42:53.281Z,4.38
2022-12-11T10:45:39.591Z,4.55
2022-12-11T10:48:25.776Z,4.30
2022-12-11T10:51:11.901Z,4.50
2022-12-11T10:54:07.178Z,4.53
2022-12-11T10:56:55.217Z,4.30
2022-12-11T10:59:45.708Z,4.07
2022-12-11T11:02:34.904Z,4.40
2022-12-11T11:05:30.153Z,4.45
2022-12-11T11:08:27.328Z,4.00
2022-12-11T11:11:24.261Z,4.22
2022-12-11T11:14:16.609Z,4.25
2022-12-11T11:17:02.371Z,4.47
2022-12-11T11:19:49.002Z,4.70
2022-12-11T11:22:40.951Z,4.80
2022-12-11T11:25:28.827Z,4.90
2022-12-11T11:28:21.237Z,5.90
2022-12-11T11:31:11.685Z,6.65
2022-12-11T11:34:00.262Z,7.50
2022-12-11T11:36:56.939Z,6.77
2022-12-11T11:39:45.237Z,24.45
2022-12-11T11:42:39.812Z,20.65
2022-12-11T11:45:28.641Z,15.73
2022-12-11T11:48:30.289Z,13.52
2022-12-11T11:51:19.651Z,11.87
2022-12-11T11:54:25.376Z,9.40
2022-12-11T11:57:17.816Z,8.43
2022-12-11T12:00:10.771Z,7.50
2022-12-11T12:02:59.683Z,6.70
2022-12-11T12:05:54.089Z,6.10
2022-12-11T12:08:46.850Z,5.38
2022-12-11T12:11:39.189Z,5.40
2022-12-11T12:14:51.524Z,5.28
2022-12-11T12:17:50.535Z,5.60
2022-12-11T12:20:47.380Z,5.40
2022-12-11T12:23:58.217Z,4.95
2022-12-11T12:26:50.439Z,5.22
2022-12-11T12:29:48.245Z,5.45
2022-12-11T12:32:46.701Z,5.50
2022-12-11T12:35:38.612Z,4.50
2022-12-11T12:38:30.492Z,4.80
2022-12-11T12:41:22.629Z,4.63
2022-12-11T12:44:16.580Z,4.28
2022-12-11T12:47:05.930Z,5.05
2022-12-11T12:49:53.317Z,5.00
2022-12-11T12:52:40.825Z,5.32
2022-12-11T12:55:29.038Z,4.82
2022-12-11T12:58:28.293Z,4.88
2022-12-11T13:01:19.427Z,4.95
2022-12-11T13:04:10.640Z,4.30
2022-12-11T13:07:20.471Z,4.32
2022-12-11T13:10:22.043Z,9.90
2022-12-11T13:13:31.050Z,10.55
2022-12-11T13:16:34.588Z,15.68
2022-12-11T13:19:40.610Z,25.03
2022-12-11T13:22:27.751Z,22.20
2022-12-11T13:25:26.165Z,20.98
2022-12-11T13:28:22.581Z,17.08
2022-12-11T13:31:34.348Z,15.90
2022-12-11T13:34:23.866Z,12.43
2022-12-11T13:37:25.155Z,10.70
2022-12-11T13:40:18.989Z,10.38
2022-12-11T13:43:07.367Z,9.18
2022-12-11T13:45:55.900Z,7.07
2022-12-11T13:48:48.250Z,6.90
2022-12-11T13:51:38.112Z,6.55
2022-12-11T13:54:24.981Z,5.88
2022-12-11T13:57:18.047Z,5.13
2022-12-11T14:00:04.504Z,4.28
2022-12-11T14:02:55.030Z,4.63
2022-12-11T14:05:43.055Z,4.65
2022-12-11T14:08:34.220Z,4.40
2022-12-11T14:11:23.672Z,4.38
2022-12-11T14:14:20.832Z,4.30
2022-12-11T14:17:06.656Z,4.53
2022-12-11T14:19:53.519Z,4.50
2022-12-11T14:22:40.694Z,3.92
2022-12-11T14:25:27.749Z,4.35
2022-12-11T14:28:17.009Z,4.90
2022-12-11T14:31:04.608Z,4.93
2022-12-11T14:33:54.311Z,5.18
2022-12-11T14:36:42.107Z,5.53
2022-12-11T14:39:32.200Z,6.60
2022-12-11T14:42:22.335Z,6.82
2022-12-11T14:45:17.432Z,6.30
2022-12-11T14:48:08.333Z,6.57
2022-12-11T14:50:57.786Z,6.70
2022-12-11T14:53:46.761Z,7.22
2022-12-11T14:56:34.051Z,6.43
2022-12-11T14:59:26.914Z,6.33
2022-12-11T15:02:26.253Z,5.95
2022-12-11T15:05:20.063Z,5.57
2022-12-11T15:08:25.031Z,5.30
2022-12-11T15:11:12.803Z,4.50
2022-12-11T15:14:02.862Z,4.70
2022-12-11T15:16:50.752Z,4.18
2022-12-11T15:19:37.763Z,4.53
2022-12-11T15:22:26.950Z,4.07
2022-12-11T15:25:19.293Z,4.18
2022-12-11T15:28:05.351Z,3.93
2022-12-11T15:30:58.294Z,4.53
2022-12-11T15:33:47.926Z,4.55
2022-12-11T15:36:36.143Z,4.90
2022-12-11T15:39:22.099Z,5.22
2022-12-11T15:42:07.700Z,4.70
2022-12-11T15:44:54.258Z,4.97
2022-12-11T15:47:42.767Z,4.82
2022-12-11T15:50:29.636Z,4.47
2022-12-11T15:53:15.691Z,4.95
2022-12-11T15:56:02.101Z,4.87
2022-12-11T15:58:49.128Z,4.68
2022-12-11T16:01:35.129Z,4.40
2022-12-11T16:04:21.920Z,4.13
2022-12-11T16:07:15.435Z,4.72
2022-12-11T16:10:01.593Z,4.50
2022-12-11T16:12:47.775Z,4.75
2022-12-11T16:15:33.781Z,4.47
2022-12-11T16:18:21.787Z,4.40
2022-12-11T16:21:09.293Z,4.25
2022-12-11T16:23:55.679Z,4.47
2022-12-11T16:26:41.874Z,3.88
2022-12-11T16:29:29.409Z,4.00
2022-12-11T16:32:16.029Z,4.18
2022-12-11T16:35:06.266Z,3.95
2022-12-11T16:37:55.172Z,4.17
2022-12-11T16:40:41.643Z,5.10
2022-12-11T16:43:27.565Z,4.40
2022-12-11T16:46:13.268Z,4.47
2022-12-11T16:48:59.201Z,5.57
2022-12-11T16:51:45.822Z,5.03
2022-12-11T16:54:32.728Z,5.00
2022-12-11T16:57:18.408Z,5.43
2022-12-11T17:00:05.556Z,5.30
2022-12-11T17:02:51.750Z,4.65
2022-12-11T17:05:39.638Z,5.40
2022-12-11T17:08:25.855Z,5.47
2022-12-11T17:11:15.598Z,6.13
2022-12-11T17:14:04.159Z,5.47
2022-12-11T17:16:50.500Z,6.15
2022-12-11T17:19:36.531Z,6.37
2022-12-11T17:22:22.678Z,6.05
2022-12-11T17:25:10.311Z,6.85
2022-12-11T17:27:58.794Z,6.90
2022-12-11T17:30:49.385Z,6.68
2022-12-11T17:33:35.882Z,6.57
2022-12-11T17:36:22.456Z,6.60
2022-12-11T17:39:10.111Z,6.93
2022-12-11T17:41:56.772Z,6.72
2022-12-11T17:44:45.746Z,6.43
2022-12-11T17:47:32.579Z,5.83
2022-12-11T17:50:19.020Z,5.80
2022-12-11T17:53:06.593Z,6.22
2022-12-11T17:55:52.973Z,5.93
2022-12-11T17:58:39.185Z,5.68
2022-12-11T18:01:27.303Z,5.50
2022-12-11T18:04:14.163Z,5.25
2022-12-11T18:07:00.964Z,5.68
2022-12-11T18:09:47.353Z,5.30
2022-12-11T18:12:34.627Z,5.93
2022-12-11T18:15:21.164Z,5.33
2022-12-11T18:18:09.383Z,6.00
2022-12-11T18:20:55.372Z,5.93
2022-12-11T18:23:43.019Z,6.03
2022-12-11T18:26:30.777Z,5.80
2022-12-11T18:29:17.924Z,6.60
2022-12-11T18:32:05.277Z,5.90
2022-12-11T18:34:54.642Z,5.60
2022-12-11T18:37:41.764Z,5.82
2022-12-11T18:40:29.217Z,5.82
2022-12-11T18:43:16.209Z,5.73
2022-12-11T18:46:06.714Z,5.80
2022-12-11T18:48:52.900Z,6.15
2022-12-11T18:51:41.714Z,5.68
2022-12-11T18:54:28.423Z,5.65
2022-12-11T18:57:14.957Z,5.70
2022-12-11T19:00:07.752Z,5.50
2022-12-11T19:02:54.460Z,6.05
2022-12-11T19:05:46.473Z,6.00
2022-12-11T19:08:35.192Z,5.57
2022-12-11T19:11:23.259Z,6.10
2022-12-11T19:14:11.466Z,5.43
2022-12-11T19:16:58.056Z,5.78
2022-12-11T19:19:48.073Z,5.05
2022-12-11T19:22:35.837Z,5.32
2022-12-11T19:25:23.988Z,5.53
2022-12-11T19:28:10.290Z,5.47
2022-12-11T19:30:56.937Z,5.10
2022-12-11T19:33:44.015Z,5.25
2022-12-11T19:36:31.638Z,4.97
2022-12-11T19:39:20.518Z,5.07
2022-12-11T19:42:09.169Z,4.63
2022-12-11T19:44:56.147Z,5.47
2022-12-11T19:47:43.117Z,5.40
2022-12-11T19:50:30.381Z,4.70
2022-12-11T19:53:16.486Z,4.93
2022-12-11T19:56:03.691Z,4.70
2022-12-11T19:58:51.912Z,4.55
2022-12-11T20:01:38.959Z,4.72
2022-12-11T20:04:26.608Z,4.32
2022-12-11T20:07:12.830Z,4.07
2022-12-11T20:10:00.913Z,3.88
2022-12-11T20:12:47.644Z,4.57
2022-12-11T20:15:40.949Z,4.35
2022-12-11T20:18:28.138Z,4.55
2022-12-11T20:21:17.010Z,4.63
2022-12-11T20:24:06.788Z,4.35
2022-12-11T20:26:54.715Z,4.25
2022-12-11T20:29:40.915Z,4.00
2022-12-11T20:32:29.039Z,4.45
2022-12-11T20:35:17.667Z,3.87
2022-12-11T20:38:06.281Z,4.03
2022-12-11T20:40:52.783Z,4.05
2022-12-11T20:43:40.403Z,4.85
2022-12-11T20:46:28.273Z,4.47
2022-12-11T20:49:17.031Z,4.17
2022-12-11T20:52:03.571Z,4.30
2022-12-11T20:54:49.735Z,4.78
2022-12-11T20:57:38.250Z,4.78
2022-12-11T21:00:28.289Z,4.50
2022-12-11T21:03:14.542Z,4.37
2022-12-11T21:06:03.241Z,3.90
2022-12-11T21:08:49.797Z,4.55
2022-12-11T21:11:35.922Z,4.55
2022-12-11T21:14:22.726Z,4.32
2022-12-11T21:17:08.457Z,4.27
2022-12-11T21:19:53.998Z,4.40
2022-12-11T21:22:41.031Z,4.50
2022-12-11T21:25:27.044Z,5.20
2022-12-11T21:28:13.773Z,4.72
2022-12-11T21:31:01.251Z,5.17
2022-12-11T21:33:48.205Z,4.57
2022-12-11T21:36:34.092Z,5.07
2022-12-11T21:39:21.467Z,4.60
2022-12-11T21:42:07.305Z,5.30
2022-12-11T21:47:58.220Z,5.70
2022-12-11T21:50:43.574Z,5.90
2022-12-11T21:53:28.877Z,5.68
2022-12-11T21:56:18.188Z,5.65
2022-12-11T21:59:03.914Z,5.57
2022-12-11T22:01:49.442Z,5.60
2022-12-11T22:04:34.753Z,6.25
2022-12-11T22:07:19.979Z,5.43
2022-12-11T22:10:06.010Z,5.00
2022-12-11T22:12:53.110Z,6.07
2022-12-11T22:15:38.835Z,5.35
2022-12-11T22:18:27.256Z,5.47
2022-12-11T22:21:12.530Z,6.00
2022-12-11T22:23:57.818Z,5.47
2022-12-11T22:26:43.143Z,6.60
2022-12-11T22:29:29.707Z,5.60
2022-12-11T22:32:15.106Z,5.38
2022-12-11T22:35:00.526Z,5.43
2022-12-11T22:37:45.915Z,6.00
2022-12-11T22:40:31.369Z,5.80
2022-12-11T22:43:16.655Z,5.03
2022-12-11T22:46:03.415Z,6.00
2022-12-11T22:48:48.986Z,5.88
2022-12-11T22:51:34.381Z,5.55
2022-12-11T22:54:19.710Z,5.23
2022-12-11T22:57:04.991Z,5.03
2022-12-11T22:59:50.308Z,5.63
2022-12-11T23:02:37.358Z,5.95
2022-12-11T23:05:22.956Z,5.70
2022-12-11T23:08:09.447Z,6.23
2022-12-11T23:10:54.700Z,5.47
2022-12-11T23:13:40.097Z,6.25
2022-12-11T23:16:27.188Z,5.63
2022-12-11T23:19:14.505Z,5.68
2022-12-11T23:22:00.178Z,5.33
2022-12-11T23:24:45.761Z,5.85
2022-12-11T23:27:30.973Z,6.20
2022-12-11T23:30:16.276Z,6.47
2022-12-11T23:33:01.551Z,6.93
2022-12-11T23:35:48.369Z,6.47
2022-12-11T23:38:34.151Z,6.95
2022-12-11T23:41:19.618Z,6.90
2022-12-11T23:44:05.434Z,6.80
2022-12-11T23:46:50.945Z,7.65
2022-12-11T23:49:36.267Z,6.37
2022-12-11T23:52:23.277Z,7.03
2022-12-11T23:55:10.602Z,7.28
2022-12-11T23:57:56.284Z,6.50
